createdAt,value
2023-03-18T00:02:01.737Z,61.20
2023-03-18T00:07:03.416Z,61.22
2023-03-18T00:12:06.487Z,60.88
2023-03-18T00:17:09.809Z,60.84
2023-03-18T00:22:11.671Z,60.19
2023-03-18T00:27:14.001Z,60.31
2023-03-18T00:32:17.295Z,61.02
2023-03-18T00:37:30.230Z,64.81
2023-03-18T00:42:38.841Z,66.63
2023-03-18T00:47:42.198Z,67.94
2023-03-18T00:52:44.067Z,66.00
2023-03-18T00:57:46.143Z,64.07
2023-03-18T01:02:49.622Z,62.76
2023-03-18T01:07:51.855Z,62.09
2023-03-18T01:12:55.331Z,61.32
2023-03-18T01:17:59.608Z,60.95
2023-03-18T01:23:01.388Z,60.47
2023-03-18T01:28:03.961Z,60.65
2023-03-18T01:33:09.750Z,60.67
2023-03-18T01:38:12.394Z,61.10
2023-03-18T01:43:15.027Z,65.43
2023-03-18T01:48:19.877Z,66.63
2023-03-18T01:53:22.054Z,64.69
2023-03-18T01:58:25.590Z,63.40
2023-03-18T02:03:28.735Z,62.46
2023-03-18T02:08:30.522Z,62.23
2023-03-18T02:13:35.683Z,62.10
2023-03-18T02:18:41.674Z,61.82
2023-03-18T02:23:47.396Z,61.86
2023-03-18T02:28:50.982Z,61.56
2023-03-18T02:33:52.862Z,61.30
2023-03-18T02:38:54.559Z,61.15
2023-03-18T02:44:01.337Z,61.05
2023-03-18T02:49:08.581Z,61.13
2023-03-18T02:54:12.756Z,60.80
2023-03-18T02:59:15.961Z,60.87
2023-03-18T03:04:17.699Z,60.50
2023-03-18T03:09:19.919Z,60.68
2023-03-18T03:14:23.132Z,60.65
2023-03-18T03:19:29.302Z,60.80
2023-03-18T03:24:31.097Z,60.77
2023-03-18T03:29:34.144Z,60.95
2023-03-18T03:34:35.820Z,60.94
2023-03-18T03:39:37.515Z,61.13
2023-03-18T03:44:40.923Z,61.39
2023-03-18T03:49:43.558Z,61.56
2023-03-18T03:54:45.614Z,61.88
2023-03-18T03:59:48.611Z,62.50
2023-03-18T04:04:53.647Z,63.51
2023-03-18T04:10:06.443Z,64.41
2023-03-18T04:15:10.494Z,65.19
2023-03-18T04:20:13.056Z,65.91
2023-03-18T04:25:15.025Z,67.05
2023-03-18T04:30:20.263Z,68.17
2023-03-18T04:35:35.062Z,69.68
2023-03-18T04:40:37.330Z,72.06
2023-03-18T04:45:40.445Z,73.47
2023-03-18T04:50:43.513Z,73.99
2023-03-18T04:55:49.822Z,75.33
2023-03-18T05:00:54.685Z,75.86
2023-03-18T05:06:01.523Z,76.85
2023-03-18T05:11:13.507Z,77.15
2023-03-18T05:16:17.048Z,78.06
2023-03-18T05:21:21.453Z,78.67
2023-03-18T05:26:24.638Z,79.13
2023-03-18T05:31:27.939Z,78.68
2023-03-18T05:36:29.829Z,79.04
2023-03-18T05:41:37.383Z,79.35
2023-03-18T05:46:43.707Z,80.07
2023-03-18T05:51:52.167Z,81.31
2023-03-18T05:57:07.375Z,81.50
2023-03-18T06:02:11.702Z,81.54
2023-03-18T06:07:13.531Z,81.41
2023-03-18T06:12:15.689Z,80.49
2023-03-18T06:17:19.326Z,80.84
2023-03-18T06:22:21.034Z,80.29
2023-03-18T06:27:23.334Z,79.60
2023-03-18T06:32:31.602Z,79.68
2023-03-18T06:37:33.910Z,79.40
2023-03-18T06:42:35.835Z,78.70
2023-03-18T06:47:45.007Z,75.31
2023-03-18T06:52:47.989Z,72.75
2023-03-18T06:57:53.084Z,68.38
2023-03-18T07:03:01.429Z,63.31
2023-03-18T07:08:04.495Z,59.47
2023-03-18T07:13:06.229Z,55.31
2023-03-18T07:18:11.984Z,55.25
2023-03-18T07:23:14.108Z,55.99
2023-03-18T07:28:16.267Z,54.91
2023-03-18T07:33:20.057Z,50.69
2023-03-18T07:38:21.795Z,46.11
2023-03-18T07:43:23.630Z,52.41
2023-03-18T07:48:26.694Z,56.71
2023-03-18T07:53:28.468Z,59.27
2023-03-18T07:58:30.306Z,59.43
2023-03-18T08:03:33.845Z,47.04
2023-03-18T08:08:35.622Z,38.99
2023-03-18T08:13:38.376Z,36.08
2023-03-18T08:18:42.030Z,34.39
2023-03-18T08:23:43.818Z,42.29
2023-03-18T08:28:45.719Z,48.24
2023-03-18T08:33:51.811Z,46.53
2023-03-18T08:38:53.705Z,45.12
2023-03-18T08:43:57.304Z,46.42
2023-03-18T08:49:00.566Z,50.69
2023-03-18T08:54:02.257Z,41.42
2023-03-18T08:59:03.998Z,35.69
2023-03-18T09:04:06.992Z,32.76
2023-03-18T09:09:08.841Z,30.94
2023-03-18T09:14:10.529Z,36.81
2023-03-18T09:19:13.734Z,34.81
2023-03-18T09:24:15.602Z,37.18
2023-03-18T09:29:17.302Z,39.17
2023-03-18T09:34:20.308Z,39.79
2023-03-18T09:39:22.009Z,41.08
2023-03-18T09:44:24.384Z,42.60
2023-03-18T09:49:49.510Z,40.74
2023-03-18T09:54:56.398Z,42.17
2023-03-18T10:00:00.457Z,46.71
2023-03-18T10:05:04.699Z,49.42
2023-03-18T10:10:07.731Z,52.25
2023-03-18T10:15:16.277Z,52.60
2023-03-18T10:20:20.525Z,47.72
2023-03-18T10:25:25.783Z,46.01
2023-03-18T10:30:34.083Z,50.42
2023-03-18T10:35:39.034Z,50.64
2023-03-18T10:40:41.304Z,45.40
2023-03-18T10:45:43.004Z,38.22
2023-03-18T10:50:47.287Z,44.03
2023-03-18T10:55:54.909Z,49.08
2023-03-18T11:00:59.020Z,53.06
2023-03-18T11:06:04.311Z,56.60
2023-03-18T11:11:20.963Z,48.83
2023-03-18T11:16:31.693Z,53.07
2023-03-18T11:21:34.735Z,55.11
2023-03-18T11:26:47.833Z,55.63
2023-03-18T11:31:51.901Z,57.86
2023-03-18T11:36:58.889Z,57.24
2023-03-18T11:42:00.724Z,57.86
2023-03-18T11:47:04.664Z,57.25
2023-03-18T11:52:15.432Z,57.09
2023-03-18T11:57:19.714Z,56.99
2023-03-18T12:02:34.212Z,51.29
2023-03-18T12:07:47.459Z,52.12
2023-03-18T12:13:05.455Z,52.48
2023-03-18T12:18:11.946Z,53.08
2023-03-18T12:23:26.061Z,54.39
2023-03-18T12:28:32.819Z,52.95
2023-03-18T12:33:42.946Z,51.74
2023-03-18T12:39:04.082Z,51.55
2023-03-18T12:44:12.111Z,51.18
2023-03-18T12:49:16.074Z,51.16
2023-03-18T12:54:21.510Z,51.11
2023-03-18T12:59:27.666Z,51.28
2023-03-18T13:04:30.292Z,51.13
2023-03-18T13:09:35.933Z,50.96
2023-03-18T13:14:48.171Z,50.48
2023-03-18T13:19:50.152Z,51.36
2023-03-18T13:25:08.613Z,51.95
2023-03-18T13:30:16.273Z,51.13
2023-03-18T13:35:33.314Z,49.13
2023-03-18T13:40:45.100Z,49.42
2023-03-18T13:45:47.322Z,50.62
2023-03-18T13:50:50.609Z,50.58
2023-03-18T13:56:00.645Z,51.45
2023-03-18T14:01:16.117Z,53.13
2023-03-18T14:06:24.822Z,53.15
2023-03-18T14:11:50.087Z,52.78
2023-03-18T14:16:52.322Z,52.36
2023-03-18T14:21:55.066Z,51.18
2023-03-18T14:27:13.122Z,51.17
2023-03-18T14:32:31.057Z,52.51
2023-03-18T14:37:33.959Z,54.20
2023-03-18T14:42:45.669Z,55.51
2023-03-18T14:47:50.812Z,56.01
2023-03-18T14:52:55.272Z,56.43
2023-03-18T14:57:58.328Z,55.26
2023-03-18T15:03:01.462Z,56.45
2023-03-18T15:08:06.888Z,57.54
2023-03-18T15:13:13.133Z,57.61
2023-03-18T15:18:20.172Z,57.10
2023-03-18T15:23:27.046Z,57.35
2023-03-18T15:28:30.218Z,57.82
2023-03-18T15:33:35.044Z,58.59
2023-03-18T15:38:36.916Z,58.41
2023-03-18T15:43:41.912Z,57.94
2023-03-18T15:48:44.549Z,58.11
2023-03-18T15:53:47.849Z,58.43
2023-03-18T15:58:58.795Z,58.64
2023-03-18T16:04:00.629Z,59.24
2023-03-18T16:09:13.714Z,59.24
2023-03-18T16:14:17.406Z,59.99
2023-03-18T16:19:24.787Z,59.11
2023-03-18T16:24:26.993Z,59.61
2023-03-18T16:29:30.851Z,58.95
2023-03-18T16:34:33.380Z,59.99
2023-03-18T16:39:35.089Z,60.05
2023-03-18T16:44:38.136Z,61.45
2023-03-18T16:49:40.422Z,60.66
2023-03-18T16:54:42.826Z,60.62
2023-03-18T16:59:47.888Z,60.58
2023-03-18T17:04:49.613Z,60.81
2023-03-18T17:09:51.991Z,61.05
2023-03-18T17:15:00.370Z,61.71
2023-03-18T17:20:16.438Z,61.47
2023-03-18T17:25:20.271Z,61.74
2023-03-18T17:30:34.085Z,61.75
2023-03-18T17:35:37.101Z,62.65
2023-03-18T17:40:40.869Z,65.71
2023-03-18T17:45:46.697Z,69.18
2023-03-18T17:50:49.607Z,71.57
2023-03-18T17:55:51.850Z,72.70
2023-03-18T18:00:55.543Z,74.31
2023-03-18T18:05:58.357Z,75.15
2023-03-18T18:11:04.387Z,76.38
2023-03-18T18:16:07.977Z,77.19
2023-03-18T18:21:11.834Z,77.20
2023-03-18T18:26:14.730Z,77.90
2023-03-18T18:31:19.437Z,78.61
2023-03-18T18:36:21.352Z,80.27
2023-03-18T18:41:23.048Z,80.57
2023-03-18T18:46:26.427Z,82.19
2023-03-18T18:51:28.278Z,84.00
2023-03-18T18:56:32.113Z,84.34
2023-03-18T19:01:35.126Z,85.06
2023-03-18T19:06:37.642Z,85.28
2023-03-18T19:11:39.538Z,85.32
2023-03-18T19:16:43.389Z,85.55
2023-03-18T19:21:45.122Z,86.34
2023-03-18T19:26:46.872Z,86.78
2023-03-18T19:31:50.249Z,87.17
2023-03-18T19:36:53.264Z,87.70
2023-03-18T19:41:55.626Z,87.80
2023-03-18T19:47:00.967Z,88.81
2023-03-18T19:52:03.590Z,91.22
2023-03-18T19:57:06.646Z,91.44
2023-03-18T20:02:18.373Z,91.51
2023-03-18T20:07:21.465Z,91.43
2023-03-18T20:12:24.469Z,91.12
2023-03-18T20:17:33.430Z,92.40
2023-03-18T20:22:36.699Z,91.98
2023-03-18T20:27:38.407Z,92.41
2023-03-18T20:32:43.922Z,91.89
2023-03-18T20:37:46.364Z,91.99
2023-03-18T20:42:48.173Z,92.59
2023-03-18T20:47:51.254Z,93.71
2023-03-18T20:52:53.367Z,93.76
2023-03-18T20:57:55.202Z,93.48
2023-03-18T21:02:58.614Z,93.56
2023-03-18T21:08:00.392Z,93.52
2023-03-18T21:13:02.436Z,92.90
2023-03-18T21:18:05.653Z,92.49
2023-03-18T21:23:17.151Z,92.23
2023-03-18T21:28:19.728Z,92.68
2023-03-18T21:33:24.429Z,92.16
2023-03-18T21:38:27.024Z,92.09
2023-03-18T21:43:30.819Z,91.94
2023-03-18T21:48:34.090Z,90.97
2023-03-18T21:53:35.777Z,90.14
2023-03-18T21:58:37.519Z,92.05
2023-03-18T22:03:40.595Z,94.48
2023-03-18T22:08:42.589Z,94.40
2023-03-18T22:13:44.479Z,96.67
2023-03-18T22:18:47.976Z,98.52
2023-03-18T22:23:49.764Z,98.55
2023-03-18T22:28:51.540Z,99.09
2023-03-18T22:33:54.685Z,100.00
2023-03-18T22:38:56.391Z,100.00
2023-03-18T22:43:59.876Z,100.00
2023-03-18T22:49:07.984Z,100.00
2023-03-18T22:54:13.038Z,100.00
2023-03-18T22:59:14.806Z,100.00
2023-03-18T23:04:19.595Z,100.00
2023-03-18T23:09:21.473Z,100.00
2023-03-18T23:14:23.225Z,100.00
2023-03-18T23:19:26.299Z,100.00
2023-03-18T23:24:28.009Z,100.00
2023-03-18T23:29:29.716Z,100.00
2023-03-18T23:34:32.767Z,100.00
2023-03-18T23:39:34.484Z,100.00
2023-03-18T23:44:36.195Z,100.00
2023-03-18T23:49:39.702Z,100.00
2023-03-18T23:54:41.504Z,100.00
2023-03-18T23:59:43.259Z,100.00
